sensor_id;sensor_type;location;lat;lon;timestamp;temperature;humidity
21282;DHT22;10800;53.096;18.328;2024-02-14T00:01:10;0.00;99.90
21282;DHT22;10800;53.096;18.328;2024-02-14T00:06:17;0.00;99.90
21282;DHT22;10800;53.096;18.328;2024-02-14T00:11:23;0.00;99.90
21282;DHT22;10800;53.096;18.328;2024-02-14T00:16:28;0.00;99.90
21282;DHT22;10800;53.096;18.328;2024-02-14T00:21:35;0.00;99.90
21282;DHT22;10800;53.096;18.328;2024-02-14T00:26:42;-0.10;99.90
21282;DHT22;10800;53.096;18.328;2024-02-14T00:31:50;-0.10;99.90
21282;DHT22;10800;53.096;18.328;2024-02-14T00:36:55;-0.10;99.90
21282;DHT22;10800;53.096;18.328;2024-02-14T00:42:00;-0.10;99.90
21282;DHT22;10800;53.096;18.328;2024-02-14T00:47:06;-0.10;99.90
21282;DHT22;10800;53.096;18.328;2024-02-14T00:52:12;-0.10;99.90
21282;DHT22;10800;53.096;18.328;2024-02-14T00:57:17;-0.10;99.90
21282;DHT22;10800;53.096;18.328;2024-02-14T01:02:24;-0.10;99.90
21282;DHT22;10800;53.096;18.328;2024-02-14T01:07:30;0.00;99.90
21282;DHT22;10800;53.096;18.328;2024-02-14T01:12:36;0.00;99.90
21282;DHT22;10800;53.096;18.328;2024-02-14T01:17:41;0.00;99.90
21282;DHT22;10800;53.096;18.328;2024-02-14T01:22:47;0.00;99.90
21282;DHT22;10800;53.096;18.328;2024-02-14T01:27:52;0.00;99.90
21282;DHT22;10800;53.096;18.328;2024-02-14T01:32:58;0.00;99.90
21282;DHT22;10800;53.096;18.328;2024-02-14T01:38:06;0.00;99.90
21282;DHT22;10800;53.096;18.328;2024-02-14T01:43:11;0.00;99.90
21282;DHT22;10800;53.096;18.328;2024-02-14T01:48:18;0.00;99.90
21282;DHT22;10800;53.096;18.328;2024-02-14T01:53:25;0.00;99.90
21282;DHT22;10800;53.096;18.328;2024-02-14T01:58:34;0.00;99.90
21282;DHT22;10800;53.096;18.328;2024-02-14T02:03:40;-0.10;99.90
21282;DHT22;10800;53.096;18.328;2024-02-14T02:08:46;-0.10;99.90
21282;DHT22;10800;53.096;18.328;2024-02-14T02:13:52;-0.10;99.90
21282;DHT22;10800;53.096;18.328;2024-02-14T02:18:58;-0.10;99.90
21282;DHT22;10800;53.096;18.328;2024-02-14T02:24:04;-0.10;99.90
21282;DHT22;10800;53.096;18.328;2024-02-14T02:29:09;-0.10;99.90
21282;DHT22;10800;53.096;18.328;2024-02-14T02:34:15;-0.10;99.90
21282;DHT22;10800;53.096;18.328;2024-02-14T02:39:21;-0.10;99.90
21282;DHT22;10800;53.096;18.328;2024-02-14T02:44:27;-0.20;99.90
21282;DHT22;10800;53.096;18.328;2024-02-14T02:49:32;-0.20;99.90
21282;DHT22;10800;53.096;18.328;2024-02-14T02:54:38;-0.30;99.90
21282;DHT22;10800;53.096;18.328;2024-02-14T02:59:48;-0.30;99.90
21282;DHT22;10800;53.096;18.328;2024-02-14T03:04:53;-0.40;99.90
21282;DHT22;10800;53.096;18.328;2024-02-14T03:09:59;-0.30;99.90
21282;DHT22;10800;53.096;18.328;2024-02-14T03:15:05;-0.30;99.90
21282;DHT22;10800;53.096;18.328;2024-02-14T03:20:13;-0.40;99.90
21282;DHT22;10800;53.096;18.328;2024-02-14T03:25:20;-0.40;99.90
21282;DHT22;10800;53.096;18.328;2024-02-14T03:30:27;-0.50;99.90
21282;DHT22;10800;53.096;18.328;2024-02-14T03:35:34;-0.60;99.90
21282;DHT22;10800;53.096;18.328;2024-02-14T03:40:40;-0.60;99.90
21282;DHT22;10800;53.096;18.328;2024-02-14T03:45:46;-0.60;99.90
21282;DHT22;10800;53.096;18.328;2024-02-14T03:50:52;-0.60;99.90
21282;DHT22;10800;53.096;18.328;2024-02-14T03:55:57;-0.60;99.90
21282;DHT22;10800;53.096;18.328;2024-02-14T04:01:03;-0.70;99.90
21282;DHT22;10800;53.096;18.328;2024-02-14T04:06:08;-0.70;99.90
21282;DHT22;10800;53.096;18.328;2024-02-14T04:11:15;-0.70;99.90
21282;DHT22;10800;53.096;18.328;2024-02-14T04:16:20;-0.70;99.90
21282;DHT22;10800;53.096;18.328;2024-02-14T04:21:26;-0.70;99.90
21282;DHT22;10800;53.096;18.328;2024-02-14T04:26:33;-0.90;99.90
21282;DHT22;10800;53.096;18.328;2024-02-14T04:31:39;-0.90;99.90
21282;DHT22;10800;53.096;18.328;2024-02-14T04:36:44;-1.00;99.90
21282;DHT22;10800;53.096;18.328;2024-02-14T04:41:50;-0.90;99.90
21282;DHT22;10800;53.096;18.328;2024-02-14T04:46:58;-0.90;99.90
21282;DHT22;10800;53.096;18.328;2024-02-14T04:52:05;-0.90;99.90
21282;DHT22;10800;53.096;18.328;2024-02-14T04:57:12;-0.80;99.90
21282;DHT22;10800;53.096;18.328;2024-02-14T05:02:19;-0.80;99.90
21282;DHT22;10800;53.096;18.328;2024-02-14T05:07:25;-0.90;99.90
21282;DHT22;10800;53.096;18.328;2024-02-14T05:12:31;-0.90;99.90
21282;DHT22;10800;53.096;18.328;2024-02-14T05:17:36;-0.90;99.90
21282;DHT22;10800;53.096;18.328;2024-02-14T05:22:43;-1.00;99.90
21282;DHT22;10800;53.096;18.328;2024-02-14T05:27:53;-1.00;99.90
21282;DHT22;10800;53.096;18.328;2024-02-14T05:32:59;-0.90;99.90
21282;DHT22;10800;53.096;18.328;2024-02-14T05:38:16;-1.00;99.90
21282;DHT22;10800;53.096;18.328;2024-02-14T05:43:26;-1.00;99.90
21282;DHT22;10800;53.096;18.328;2024-02-14T05:48:34;-1.00;99.90
21282;DHT22;10800;53.096;18.328;2024-02-14T05:53:43;-1.10;99.90
21282;DHT22;10800;53.096;18.328;2024-02-14T05:58:56;-1.10;99.90
21282;DHT22;10800;53.096;18.328;2024-02-14T06:04:07;-1.10;99.90
21282;DHT22;10800;53.096;18.328;2024-02-14T06:09:13;-1.10;99.90
21282;DHT22;10800;53.096;18.328;2024-02-14T06:14:25;-1.20;99.90
21282;DHT22;10800;53.096;18.328;2024-02-14T06:19:33;-1.20;99.90
21282;DHT22;10800;53.096;18.328;2024-02-14T06:24:42;-1.20;99.90
21282;DHT22;10800;53.096;18.328;2024-02-14T06:29:50;-1.20;99.90
21282;DHT22;10800;53.096;18.328;2024-02-14T06:34:58;-1.20;99.90
21282;DHT22;10800;53.096;18.328;2024-02-14T06:40:12;-1.10;99.90
21282;DHT22;10800;53.096;18.328;2024-02-14T06:45:18;-1.10;99.90
21282;DHT22;10800;53.096;18.328;2024-02-14T06:50:25;-1.00;99.90
21282;DHT22;10800;53.096;18.328;2024-02-14T06:55:32;-0.90;99.90
21282;DHT22;10800;53.096;18.328;2024-02-14T07:00:41;-0.80;99.90
21282;DHT22;10800;53.096;18.328;2024-02-14T07:05:46;-0.70;99.90
21282;DHT22;10800;53.096;18.328;2024-02-14T07:10:52;-0.60;99.90
21282;DHT22;10800;53.096;18.328;2024-02-14T07:15:57;-0.40;99.90
21282;DHT22;10800;53.096;18.328;2024-02-14T07:21:09;0.00;99.90
21282;DHT22;10800;53.096;18.328;2024-02-14T07:26:14;0.30;99.90
21282;DHT22;10800;53.096;18.328;2024-02-14T07:31:20;0.70;99.90
21282;DHT22;10800;53.096;18.328;2024-02-14T07:36:25;1.20;99.90
21282;DHT22;10800;53.096;18.328;2024-02-14T07:41:31;1.80;99.90
21282;DHT22;10800;53.096;18.328;2024-02-14T07:46:43;2.40;99.90
21282;DHT22;10800;53.096;18.328;2024-02-14T07:51:49;3.00;99.90
21282;DHT22;10800;53.096;18.328;2024-02-14T07:56:54;3.50;99.90
21282;DHT22;10800;53.096;18.328;2024-02-14T08:02:00;3.90;99.90
21282;DHT22;10800;53.096;18.328;2024-02-14T08:07:05;4.00;99.90
21282;DHT22;10800;53.096;18.328;2024-02-14T08:12:11;4.40;99.90
21282;DHT22;10800;53.096;18.328;2024-02-14T08:17:17;4.80;99.90
21282;DHT22;10800;53.096;18.328;2024-02-14T08:22:23;5.00;99.90
21282;DHT22;10800;53.096;18.328;2024-02-14T08:27:28;4.90;99.90
21282;DHT22;10800;53.096;18.328;2024-02-14T08:32:35;4.80;99.90
21282;DHT22;10800;53.096;18.328;2024-02-14T08:37:41;5.10;99.90
21282;DHT22;10800;53.096;18.328;2024-02-14T08:42:47;5.80;99.90
21282;DHT22;10800;53.096;18.328;2024-02-14T08:47:52;6.00;99.90
21282;DHT22;10800;53.096;18.328;2024-02-14T08:52:58;5.80;99.90
21282;DHT22;10800;53.096;18.328;2024-02-14T08:58:04;5.60;99.90
21282;DHT22;10800;53.096;18.328;2024-02-14T09:03:09;5.40;99.90
21282;DHT22;10800;53.096;18.328;2024-02-14T09:08:16;5.40;99.90
21282;DHT22;10800;53.096;18.328;2024-02-14T09:13:22;5.80;99.90
21282;DHT22;10800;53.096;18.328;2024-02-14T09:18:27;6.20;99.90
21282;DHT22;10800;53.096;18.328;2024-02-14T09:23:34;6.60;99.90
21282;DHT22;10800;53.096;18.328;2024-02-14T09:28:41;6.20;99.90
21282;DHT22;10800;53.096;18.328;2024-02-14T09:33:47;6.30;99.90
21282;DHT22;10800;53.096;18.328;2024-02-14T09:38:54;6.40;99.90
21282;DHT22;10800;53.096;18.328;2024-02-14T09:44:03;7.00;99.90
21282;DHT22;10800;53.096;18.328;2024-02-14T09:49:09;7.20;99.90
21282;DHT22;10800;53.096;18.328;2024-02-14T09:54:17;7.50;99.90
21282;DHT22;10800;53.096;18.328;2024-02-14T09:59:23;8.00;99.90
21282;DHT22;10800;53.096;18.328;2024-02-14T10:04:29;8.50;99.90
21282;DHT22;10800;53.096;18.328;2024-02-14T10:09:42;8.40;99.90
21282;DHT22;10800;53.096;18.328;2024-02-14T10:14:48;8.30;99.90
21282;DHT22;10800;53.096;18.328;2024-02-14T10:20:01;8.70;99.90
21282;DHT22;10800;53.096;18.328;2024-02-14T10:25:08;8.40;99.90
21282;DHT22;10800;53.096;18.328;2024-02-14T10:30:15;8.50;99.90
21282;DHT22;10800;53.096;18.328;2024-02-14T10:35:21;8.90;99.90
21282;DHT22;10800;53.096;18.328;2024-02-14T10:40:28;9.20;99.90
21282;DHT22;10800;53.096;18.328;2024-02-14T10:45:34;9.30;99.90
21282;DHT22;10800;53.096;18.328;2024-02-14T10:50:45;9.10;99.90
21282;DHT22;10800;53.096;18.328;2024-02-14T10:55:52;9.30;99.90
21282;DHT22;10800;53.096;18.328;2024-02-14T11:00:59;9.50;99.90
21282;DHT22;10800;53.096;18.328;2024-02-14T11:06:05;9.10;99.90
21282;DHT22;10800;53.096;18.328;2024-02-14T11:11:12;8.60;99.90
21282;DHT22;10800;53.096;18.328;2024-02-14T11:16:18;8.60;99.90
21282;DHT22;10800;53.096;18.328;2024-02-14T11:21:28;8.50;99.90
21282;DHT22;10800;53.096;18.328;2024-02-14T11:26:53;8.50;99.90
21282;DHT22;10800;53.096;18.328;2024-02-14T11:32:00;8.60;99.90
21282;DHT22;10800;53.096;18.328;2024-02-14T11:37:07;8.50;99.90
21282;DHT22;10800;53.096;18.328;2024-02-14T11:42:14;8.60;99.90
21282;DHT22;10800;53.096;18.328;2024-02-14T11:47:20;8.80;99.90
21282;DHT22;10800;53.096;18.328;2024-02-14T11:52:26;8.90;99.90
21282;DHT22;10800;53.096;18.328;2024-02-14T11:57:31;9.10;99.90
21282;DHT22;10800;53.096;18.328;2024-02-14T12:02:38;9.00;99.90
21282;DHT22;10800;53.096;18.328;2024-02-14T12:07:50;9.00;99.90
21282;DHT22;10800;53.096;18.328;2024-02-14T12:12:55;8.90;99.90
21282;DHT22;10800;53.096;18.328;2024-02-14T12:18:01;8.80;99.90
21282;DHT22;10800;53.096;18.328;2024-02-14T12:23:07;8.80;99.90
21282;DHT22;10800;53.096;18.328;2024-02-14T12:28:19;8.90;99.90
21282;DHT22;10800;53.096;18.328;2024-02-14T12:33:26;8.80;99.90
21282;DHT22;10800;53.096;18.328;2024-02-14T12:38:34;8.70;99.90
21282;DHT22;10800;53.096;18.328;2024-02-14T12:43:40;8.70;99.90
21282;DHT22;10800;53.096;18.328;2024-02-14T12:48:45;8.70;99.90
21282;DHT22;10800;53.096;18.328;2024-02-14T12:53:53;8.90;99.90
21282;DHT22;10800;53.096;18.328;2024-02-14T12:58:58;8.90;99.90
21282;DHT22;10800;53.096;18.328;2024-02-14T13:04:07;8.70;99.90
21282;DHT22;10800;53.096;18.328;2024-02-14T13:09:14;8.70;99.90
21282;DHT22;10800;53.096;18.328;2024-02-14T13:14:22;8.70;99.90
21282;DHT22;10800;53.096;18.328;2024-02-14T13:19:30;8.60;99.90
21282;DHT22;10800;53.096;18.328;2024-02-14T13:24:44;8.50;99.90
21282;DHT22;10800;53.096;18.328;2024-02-14T13:29:57;8.50;99.90
21282;DHT22;10800;53.096;18.328;2024-02-14T13:35:03;8.50;99.90
21282;DHT22;10800;53.096;18.328;2024-02-14T13:40:10;8.40;99.90
21282;DHT22;10800;53.096;18.328;2024-02-14T13:45:16;8.40;99.90
21282;DHT22;10800;53.096;18.328;2024-02-14T13:50:21;8.40;99.90
21282;DHT22;10800;53.096;18.328;2024-02-14T13:55:28;8.40;99.90
21282;DHT22;10800;53.096;18.328;2024-02-14T14:00:35;8.50;99.90
21282;DHT22;10800;53.096;18.328;2024-02-14T14:05:41;8.50;99.90
21282;DHT22;10800;53.096;18.328;2024-02-14T14:10:50;8.50;99.90
21282;DHT22;10800;53.096;18.328;2024-02-14T14:15:56;8.50;99.90
21282;DHT22;10800;53.096;18.328;2024-02-14T14:21:02;8.30;99.90
21282;DHT22;10800;53.096;18.328;2024-02-14T14:26:08;8.10;99.90
21282;DHT22;10800;53.096;18.328;2024-02-14T14:31:14;8.00;99.90
21282;DHT22;10800;53.096;18.328;2024-02-14T14:36:19;7.90;99.90
21282;DHT22;10800;53.096;18.328;2024-02-14T14:41:25;7.80;99.90
21282;DHT22;10800;53.096;18.328;2024-02-14T14:46:30;7.80;99.90
21282;DHT22;10800;53.096;18.328;2024-02-14T14:51:37;7.80;99.90
21282;DHT22;10800;53.096;18.328;2024-02-14T14:56:43;7.70;99.90
21282;DHT22;10800;53.096;18.328;2024-02-14T15:01:50;7.70;99.90
21282;DHT22;10800;53.096;18.328;2024-02-14T15:06:56;7.70;99.90
21282;DHT22;10800;53.096;18.328;2024-02-14T15:12:02;7.60;99.90
21282;DHT22;10800;53.096;18.328;2024-02-14T15:17:12;7.50;99.90
21282;DHT22;10800;53.096;18.328;2024-02-14T15:22:22;7.50;99.90
21282;DHT22;10800;53.096;18.328;2024-02-14T15:27:31;7.40;99.90
21282;DHT22;10800;53.096;18.328;2024-02-14T15:32:37;7.30;99.90
21282;DHT22;10800;53.096;18.328;2024-02-14T15:38:01;7.30;99.90
21282;DHT22;10800;53.096;18.328;2024-02-14T15:43:08;7.20;99.90
21282;DHT22;10800;53.096;18.328;2024-02-14T15:48:15;7.10;99.90
21282;DHT22;10800;53.096;18.328;2024-02-14T15:53:28;7.00;99.90
21282;DHT22;10800;53.096;18.328;2024-02-14T15:58:35;7.00;99.90
21282;DHT22;10800;53.096;18.328;2024-02-14T16:03:47;6.90;99.90
21282;DHT22;10800;53.096;18.328;2024-02-14T16:08:53;6.80;99.90
21282;DHT22;10800;53.096;18.328;2024-02-14T16:14:05;6.70;99.90
21282;DHT22;10800;53.096;18.328;2024-02-14T16:19:13;6.60;99.90
21282;DHT22;10800;53.096;18.328;2024-02-14T16:24:18;6.60;99.90
21282;DHT22;10800;53.096;18.328;2024-02-14T16:29:33;6.50;99.90
21282;DHT22;10800;53.096;18.328;2024-02-14T16:34:41;6.40;99.90
21282;DHT22;10800;53.096;18.328;2024-02-14T16:39:48;6.30;99.90
21282;DHT22;10800;53.096;18.328;2024-02-14T16:44:56;6.20;99.90
21282;DHT22;10800;53.096;18.328;2024-02-14T16:50:03;6.10;99.90
21282;DHT22;10800;53.096;18.328;2024-02-14T16:55:11;6.00;99.90
21282;DHT22;10800;53.096;18.328;2024-02-14T17:00:26;5.90;99.90
21282;DHT22;10800;53.096;18.328;2024-02-14T17:05:36;5.90;99.90
21282;DHT22;10800;53.096;18.328;2024-02-14T17:10:43;5.90;99.90
21282;DHT22;10800;53.096;18.328;2024-02-14T17:15:57;5.80;99.90
21282;DHT22;10800;53.096;18.328;2024-02-14T17:21:37;5.80;99.90
21282;DHT22;10800;53.096;18.328;2024-02-14T17:32:27;5.80;99.90
21282;DHT22;10800;53.096;18.328;2024-02-14T17:37:59;5.90;99.90
21282;DHT22;10800;53.096;18.328;2024-02-14T17:43:11;5.90;99.90
21282;DHT22;10800;53.096;18.328;2024-02-14T17:48:30;5.90;99.90
21282;DHT22;10800;53.096;18.328;2024-02-14T17:53:44;5.90;99.90
21282;DHT22;10800;53.096;18.328;2024-02-14T17:58:57;5.80;99.90
21282;DHT22;10800;53.096;18.328;2024-02-14T18:04:06;5.80;99.90
21282;DHT22;10800;53.096;18.328;2024-02-14T18:09:19;5.80;99.90
21282;DHT22;10800;53.096;18.328;2024-02-14T18:14:25;5.80;99.90
21282;DHT22;10800;53.096;18.328;2024-02-14T18:19:32;5.80;99.90
21282;DHT22;10800;53.096;18.328;2024-02-14T18:24:37;5.80;99.90
21282;DHT22;10800;53.096;18.328;2024-02-14T18:29:43;5.80;99.90
21282;DHT22;10800;53.096;18.328;2024-02-14T18:34:49;5.80;99.90
21282;DHT22;10800;53.096;18.328;2024-02-14T18:39:54;5.80;99.90
21282;DHT22;10800;53.096;18.328;2024-02-14T18:45:02;5.80;99.90
21282;DHT22;10800;53.096;18.328;2024-02-14T18:50:07;5.80;99.90
21282;DHT22;10800;53.096;18.328;2024-02-14T18:55:13;5.90;99.90
21282;DHT22;10800;53.096;18.328;2024-02-14T19:00:19;5.90;99.90
21282;DHT22;10800;53.096;18.328;2024-02-14T19:05:24;5.80;99.90
21282;DHT22;10800;53.096;18.328;2024-02-14T19:10:30;5.80;99.90
21282;DHT22;10800;53.096;18.328;2024-02-14T19:15:35;5.90;99.90
21282;DHT22;10800;53.096;18.328;2024-02-14T19:20:41;5.90;99.90
21282;DHT22;10800;53.096;18.328;2024-02-14T19:25:48;5.80;99.90
21282;DHT22;10800;53.096;18.328;2024-02-14T19:30:55;5.80;99.90
21282;DHT22;10800;53.096;18.328;2024-02-14T19:36:01;5.80;99.90
21282;DHT22;10800;53.096;18.328;2024-02-14T19:41:08;5.70;99.90
21282;DHT22;10800;53.096;18.328;2024-02-14T19:46:14;5.70;99.90
21282;DHT22;10800;53.096;18.328;2024-02-14T19:51:20;5.70;99.90
21282;DHT22;10800;53.096;18.328;2024-02-14T19:56:26;5.70;99.90
21282;DHT22;10800;53.096;18.328;2024-02-14T20:01:33;5.70;99.90
21282;DHT22;10800;53.096;18.328;2024-02-14T20:06:38;5.70;99.90
21282;DHT22;10800;53.096;18.328;2024-02-14T20:11:44;5.80;99.90
21282;DHT22;10800;53.096;18.328;2024-02-14T20:16:50;5.80;99.90
21282;DHT22;10800;53.096;18.328;2024-02-14T20:21:55;5.80;99.90
21282;DHT22;10800;53.096;18.328;2024-02-14T20:27:01;5.80;99.90
21282;DHT22;10800;53.096;18.328;2024-02-14T20:32:06;5.80;99.90
21282;DHT22;10800;53.096;18.328;2024-02-14T20:37:13;5.80;99.90
21282;DHT22;10800;53.096;18.328;2024-02-14T20:42:18;5.80;99.90
21282;DHT22;10800;53.096;18.328;2024-02-14T20:47:24;5.80;99.90
21282;DHT22;10800;53.096;18.328;2024-02-14T20:52:30;5.80;99.90
21282;DHT22;10800;53.096;18.328;2024-02-14T20:57:35;5.90;99.90
21282;DHT22;10800;53.096;18.328;2024-02-14T21:02:41;5.90;99.90
21282;DHT22;10800;53.096;18.328;2024-02-14T21:07:46;5.90;99.90
21282;DHT22;10800;53.096;18.328;2024-02-14T21:12:52;5.90;99.90
21282;DHT22;10800;53.096;18.328;2024-02-14T21:18:00;5.90;99.90
21282;DHT22;10800;53.096;18.328;2024-02-14T21:23:06;5.90;99.90
21282;DHT22;10800;53.096;18.328;2024-02-14T21:28:12;5.90;99.90
21282;DHT22;10800;53.096;18.328;2024-02-14T21:33:17;5.90;99.90
21282;DHT22;10800;53.096;18.328;2024-02-14T21:38:23;5.90;99.90
21282;DHT22;10800;53.096;18.328;2024-02-14T21:43:29;5.90;99.90
21282;DHT22;10800;53.096;18.328;2024-02-14T21:48:34;5.90;99.90
21282;DHT22;10800;53.096;18.328;2024-02-14T21:53:40;6.00;99.90
21282;DHT22;10800;53.096;18.328;2024-02-14T21:59:03;6.00;99.90
21282;DHT22;10800;53.096;18.328;2024-02-14T22:04:09;6.00;99.90
21282;DHT22;10800;53.096;18.328;2024-02-14T22:09:15;6.10;99.90
21282;DHT22;10800;53.096;18.328;2024-02-14T22:14:21;6.10;99.90
21282;DHT22;10800;53.096;18.328;2024-02-14T22:19:30;6.20;99.90
21282;DHT22;10800;53.096;18.328;2024-02-14T22:24:38;6.20;99.90
21282;DHT22;10800;53.096;18.328;2024-02-14T22:29:44;6.30;99.90
21282;DHT22;10800;53.096;18.328;2024-02-14T22:34:49;6.30;99.90
21282;DHT22;10800;53.096;18.328;2024-02-14T22:39:55;6.30;99.90
21282;DHT22;10800;53.096;18.328;2024-02-14T22:45:01;6.30;99.90
21282;DHT22;10800;53.096;18.328;2024-02-14T22:50:08;6.30;99.90
21282;DHT22;10800;53.096;18.328;2024-02-14T22:55:13;6.30;99.90
21282;DHT22;10800;53.096;18.328;2024-02-14T23:00:26;6.40;99.90
21282;DHT22;10800;53.096;18.328;2024-02-14T23:05:33;6.40;99.90
21282;DHT22;10800;53.096;18.328;2024-02-14T23:10:40;6.40;99.90
21282;DHT22;10800;53.096;18.328;2024-02-14T23:15:46;6.40;99.90
21282;DHT22;10800;53.096;18.328;2024-02-14T23:20:56;6.30;99.90
21282;DHT22;10800;53.096;18.328;2024-02-14T23:26:01;6.40;99.90
21282;DHT22;10800;53.096;18.328;2024-02-14T23:31:11;6.40;99.90
21282;DHT22;10800;53.096;18.328;2024-02-14T23:36:18;6.40;99.90
21282;DHT22;10800;53.096;18.328;2024-02-14T23:41:24;6.40;99.90
21282;DHT22;10800;53.096;18.328;2024-02-14T23:46:29;6.40;99.90
21282;DHT22;10800;53.096;18.328;2024-02-14T23:51:37;6.40;99.90
21282;DHT22;10800;53.096;18.328;2024-02-14T23:56:44;6.40;99.90
